createdAt,value
2018-07-19T00:01:29.824Z,19.13
2018-07-19T00:04:00.429Z,19.12
2018-07-19T00:06:31.153Z,19.06
2018-07-19T00:09:01.862Z,19.03
2018-07-19T00:11:32.602Z,19.03
2018-07-19T00:14:03.459Z,18.97
2018-07-19T00:16:34.197Z,18.97
2018-07-19T00:19:05.001Z,18.89
2018-07-19T00:21:35.731Z,18.81
2018-07-19T00:24:06.504Z,18.80
2018-07-19T00:26:37.252Z,18.78
2018-07-19T00:29:08.076Z,18.77
2018-07-19T00:31:38.872Z,18.74
2018-07-19T00:34:09.573Z,18.69
2018-07-19T00:36:40.378Z,18.68
2018-07-19T00:39:11.144Z,18.63
2018-07-19T00:41:45.377Z,18.66
2018-07-19T00:44:17.366Z,18.63
2018-07-19T00:46:48.404Z,18.59
2018-07-19T00:49:19.170Z,18.53
2018-07-19T00:51:49.981Z,18.48
2018-07-19T00:54:20.749Z,18.48
2018-07-19T00:56:51.678Z,18.43
2018-07-19T00:59:22.440Z,18.41
2018-07-19T01:01:53.215Z,18.41
2018-07-19T01:04:24.335Z,18.33
2018-07-19T01:06:55.143Z,18.35
2018-07-19T01:09:25.853Z,18.27
2018-07-19T01:11:56.631Z,18.26
2018-07-19T01:14:27.339Z,18.20
2018-07-19T01:16:58.099Z,18.19
2018-07-19T01:19:28.854Z,18.14
2018-07-19T01:21:59.563Z,18.18
2018-07-19T01:24:30.254Z,18.08
2018-07-19T01:27:01.062Z,18.07
2018-07-19T01:29:31.810Z,18.04
2018-07-19T01:32:02.537Z,18.00
2018-07-19T01:34:33.247Z,17.96
2018-07-19T01:37:03.996Z,17.99
2018-07-19T01:39:34.695Z,17.96
2018-07-19T01:42:32.486Z,17.90
2018-07-19T01:45:03.333Z,17.91
2018-07-19T01:47:34.021Z,17.86
2018-07-19T01:50:05.252Z,17.87
2018-07-19T01:52:35.967Z,17.81
2018-07-19T01:55:07.214Z,17.78
2018-07-19T01:57:38.020Z,17.75
2018-07-19T02:00:08.875Z,17.73
2018-07-19T02:02:39.833Z,17.67
2018-07-19T02:05:10.573Z,17.59
2018-07-19T02:07:41.344Z,17.62
2018-07-19T02:10:12.139Z,17.60
2018-07-19T02:12:42.879Z,17.55
2018-07-19T02:15:13.819Z,17.54
2018-07-19T02:17:44.524Z,17.47
2018-07-19T02:20:15.275Z,17.44
2018-07-19T02:22:46.019Z,17.36
2018-07-19T02:25:16.769Z,17.28
2018-07-19T02:27:47.440Z,17.24
2018-07-19T02:30:18.236Z,17.17
2018-07-19T02:32:48.955Z,17.04
2018-07-19T02:35:19.687Z,17.04
2018-07-19T02:37:50.448Z,16.95
2018-07-19T02:40:21.256Z,16.89
2018-07-19T02:42:51.992Z,16.79
2018-07-19T02:45:22.732Z,16.74
2018-07-19T02:47:53.452Z,16.72
2018-07-19T02:50:24.237Z,16.80
2018-07-19T02:52:54.964Z,16.72
2018-07-19T02:55:25.750Z,16.68
2018-07-19T02:57:56.533Z,16.68
2018-07-19T03:00:27.361Z,16.70
2018-07-19T03:02:58.005Z,16.72
2018-07-19T03:05:28.677Z,16.66
2018-07-19T03:07:59.379Z,16.63
2018-07-19T03:10:30.059Z,16.59
2018-07-19T03:13:00.755Z,16.50
2018-07-19T03:15:31.446Z,16.43
2018-07-19T03:18:02.119Z,16.40
2018-07-19T03:20:32.828Z,16.35
2018-07-19T03:23:03.559Z,16.28
2018-07-19T03:25:34.279Z,16.27
2018-07-19T03:28:05.015Z,16.21
2018-07-19T03:30:35.720Z,16.13
2018-07-19T03:33:06.776Z,16.13
2018-07-19T03:35:37.472Z,16.14
2018-07-19T03:38:08.224Z,16.21
2018-07-19T03:40:38.888Z,16.23
2018-07-19T03:43:09.541Z,16.33
2018-07-19T03:45:40.228Z,16.34
2018-07-19T03:48:10.898Z,16.33
2018-07-19T03:50:41.670Z,16.36
2018-07-19T03:53:12.377Z,16.44
2018-07-19T03:55:43.055Z,16.41
2018-07-19T03:58:13.750Z,16.43
2018-07-19T04:00:44.373Z,16.39
2018-07-19T04:03:15.099Z,16.37
2018-07-19T04:05:45.780Z,16.39
2018-07-19T04:08:16.466Z,16.36
2018-07-19T04:10:47.129Z,16.32
2018-07-19T04:13:18.207Z,16.38
2018-07-19T04:15:48.853Z,16.27
2018-07-19T04:18:19.547Z,16.27
2018-07-19T04:20:50.169Z,16.22
2018-07-19T04:23:20.871Z,16.29
2018-07-19T04:25:51.610Z,16.27
2018-07-19T04:28:22.348Z,16.29
2018-07-19T04:30:53.053Z,16.35
2018-07-19T04:33:23.827Z,16.34
2018-07-19T04:35:54.470Z,16.38
2018-07-19T04:38:25.245Z,16.44
2018-07-19T04:40:55.961Z,16.54
2018-07-19T04:43:26.615Z,16.64
2018-07-19T04:45:57.297Z,16.71
2018-07-19T04:48:28.008Z,16.73
2018-07-19T04:50:58.844Z,16.77
2018-07-19T04:53:29.548Z,16.79
2018-07-19T04:56:00.274Z,16.83
2018-07-19T04:58:30.985Z,16.82
2018-07-19T05:01:01.652Z,16.86
2018-07-19T05:03:32.359Z,16.87
2018-07-19T05:06:03.068Z,16.94
2018-07-19T05:08:33.784Z,16.97
2018-07-19T05:11:04.099Z,17.04
2018-07-19T05:13:34.665Z,17.11
2018-07-19T05:16:05.322Z,17.18
2018-07-19T05:18:35.999Z,17.25
2018-07-19T05:21:06.727Z,17.30
2018-07-19T05:23:37.405Z,17.40
2018-07-19T05:26:08.232Z,17.52
2018-07-19T05:28:38.939Z,17.60
2018-07-19T05:31:09.700Z,17.59
2018-07-19T05:33:40.411Z,17.62
2018-07-19T05:36:11.732Z,17.68
2018-07-19T05:38:42.505Z,17.74
2018-07-19T05:41:13.252Z,17.88
2018-07-19T05:43:43.996Z,17.99
2018-07-19T05:46:14.799Z,18.03
2018-07-19T05:48:45.569Z,18.14
2018-07-19T05:51:16.732Z,18.21
2018-07-19T05:53:47.444Z,18.33
2018-07-19T05:56:18.177Z,18.49
2018-07-19T05:58:48.854Z,18.69
2018-07-19T06:01:19.605Z,18.86
2018-07-19T06:03:50.342Z,18.99
2018-07-19T06:06:21.546Z,19.12
2018-07-19T06:08:52.277Z,19.19
2018-07-19T06:11:23.004Z,19.25
2018-07-19T06:13:53.683Z,19.36
2018-07-19T06:16:24.566Z,19.50
2018-07-19T06:18:55.279Z,19.63
2018-07-19T06:21:25.922Z,19.76
2018-07-19T06:23:56.640Z,19.93
2018-07-19T06:26:27.445Z,20.08
2018-07-19T06:28:58.217Z,20.17
2018-07-19T06:31:28.912Z,20.28
2018-07-19T06:33:59.597Z,20.33
2018-07-19T06:36:30.250Z,20.45
2018-07-19T06:39:00.958Z,20.51
2018-07-19T06:41:31.621Z,20.53
2018-07-19T06:44:02.348Z,20.45
2018-07-19T06:46:33.082Z,20.46
2018-07-19T06:49:03.782Z,20.53
2018-07-19T06:51:34.480Z,20.67
2018-07-19T06:54:05.202Z,20.84
2018-07-19T06:56:35.965Z,20.95
2018-07-19T06:59:06.696Z,21.01
2018-07-19T07:01:37.108Z,20.97
2018-07-19T07:04:07.742Z,20.96
2018-07-19T07:06:38.460Z,20.98
2018-07-19T07:09:10.975Z,20.99
2018-07-19T07:11:41.832Z,21.17
2018-07-19T07:14:12.525Z,21.19
2018-07-19T07:16:43.186Z,21.28
2018-07-19T07:19:13.811Z,21.40
2018-07-19T07:21:44.507Z,21.52
2018-07-19T07:24:15.262Z,21.75
2018-07-19T07:26:45.947Z,22.04
2018-07-19T07:29:16.687Z,22.25
2018-07-19T07:31:47.417Z,22.20
2018-07-19T07:34:18.101Z,22.10
2018-07-19T07:36:48.803Z,22.09
2018-07-19T07:39:19.478Z,22.18
2018-07-19T07:41:50.304Z,22.55
2018-07-19T07:44:21.072Z,22.92
2018-07-19T07:46:51.731Z,23.16
2018-07-19T07:49:22.453Z,23.43
2018-07-19T07:51:53.149Z,23.55
2018-07-19T07:54:23.885Z,23.70
2018-07-19T07:56:54.624Z,23.99
2018-07-19T07:59:25.381Z,24.10
2018-07-19T08:01:56.055Z,24.00
2018-07-19T08:04:26.768Z,24.15
2018-07-19T08:06:57.467Z,24.25
2018-07-19T08:09:28.247Z,24.52
2018-07-19T08:11:58.899Z,24.74
2018-07-19T08:14:29.600Z,24.79
2018-07-19T08:17:00.301Z,24.79
2018-07-19T08:19:31.006Z,24.97
2018-07-19T08:22:01.777Z,25.13
2018-07-19T08:24:32.112Z,25.58
2018-07-19T08:27:02.683Z,26.15
2018-07-19T08:29:33.371Z,26.57
2018-07-19T08:32:04.096Z,26.75
2018-07-19T08:34:34.801Z,26.78
2018-07-19T08:37:05.634Z,26.70
2018-07-19T08:39:36.474Z,26.87
2018-07-19T08:42:07.184Z,27.04
2018-07-19T08:44:37.881Z,26.97
2018-07-19T08:47:08.667Z,27.21
2018-07-19T08:49:39.304Z,27.50
2018-07-19T08:52:10.041Z,27.81
2018-07-19T08:54:40.812Z,28.16
2018-07-19T08:57:11.650Z,27.93
2018-07-19T08:59:42.408Z,28.31
2018-07-19T09:02:13.186Z,28.48
2018-07-19T09:04:44.013Z,28.38
2018-07-19T09:07:14.747Z,28.38
2018-07-19T09:09:45.455Z,28.33
2018-07-19T09:12:16.135Z,28.56
2018-07-19T09:14:46.815Z,28.79
2018-07-19T09:17:17.466Z,28.97
2018-07-19T09:19:48.193Z,28.65
2018-07-19T09:22:19.035Z,28.22
2018-07-19T09:24:49.822Z,28.52
2018-07-19T09:27:21.258Z,28.61
2018-07-19T09:29:52.093Z,28.51
2018-07-19T09:32:22.833Z,28.47
2018-07-19T09:34:53.480Z,28.45
2018-07-19T09:37:24.167Z,28.41
2018-07-19T09:39:54.826Z,28.46
2018-07-19T09:42:25.578Z,28.25
2018-07-19T09:44:56.230Z,28.85
2018-07-19T09:47:26.926Z,28.90
2018-07-19T09:49:57.566Z,29.39
2018-07-19T09:52:28.281Z,29.92
2018-07-19T09:55:00.599Z,30.46
2018-07-19T09:57:32.123Z,30.70
2018-07-19T10:00:02.887Z,30.46
2018-07-19T10:02:33.668Z,30.16
2018-07-19T10:05:04.516Z,30.66
2018-07-19T10:07:35.216Z,31.11
2018-07-19T10:10:06.091Z,31.60
2018-07-19T10:12:36.809Z,31.36
2018-07-19T10:15:07.659Z,31.15
2018-07-19T10:17:38.354Z,31.19
2018-07-19T10:20:09.048Z,31.43
2018-07-19T10:22:39.833Z,31.51
2018-07-19T10:25:10.649Z,30.55
2018-07-19T10:27:41.393Z,29.60
2018-07-19T10:30:12.113Z,29.65
2018-07-19T10:32:42.864Z,29.55
2018-07-19T10:35:13.490Z,29.74
2018-07-19T10:37:44.157Z,29.82
2018-07-19T10:40:14.832Z,29.80
2018-07-19T10:42:45.510Z,29.56
2018-07-19T10:45:16.203Z,29.79
2018-07-19T10:47:46.868Z,30.09
2018-07-19T10:50:17.545Z,30.23
2018-07-19T10:52:48.172Z,30.24
2018-07-19T10:55:18.890Z,30.46
2018-07-19T10:57:49.537Z,30.56
2018-07-19T11:00:20.322Z,31.26
2018-07-19T11:02:51.114Z,31.38
2018-07-19T11:05:21.769Z,31.17
2018-07-19T11:07:52.430Z,30.86
2018-07-19T11:10:23.144Z,30.55
2018-07-19T11:12:53.807Z,30.37
2018-07-19T11:15:24.503Z,30.18
2018-07-19T11:17:55.294Z,29.85
2018-07-19T11:20:25.971Z,29.43
2018-07-19T11:22:56.608Z,29.33
2018-07-19T11:25:27.316Z,28.83
2018-07-19T11:27:57.981Z,28.90
2018-07-19T11:30:28.675Z,28.83
2018-07-19T11:32:59.339Z,28.85
2018-07-19T11:35:30.027Z,29.08
2018-07-19T11:38:00.685Z,29.33
2018-07-19T11:40:31.410Z,29.46
2018-07-19T11:43:02.083Z,29.69
2018-07-19T11:45:32.809Z,29.91
2018-07-19T11:48:03.421Z,29.94
2018-07-19T11:50:34.148Z,30.09
2018-07-19T11:53:04.879Z,30.51
2018-07-19T11:55:35.703Z,31.18
2018-07-19T11:58:06.443Z,31.87
2018-07-19T12:00:37.119Z,32.14
2018-07-19T12:03:07.834Z,32.35
2018-07-19T12:05:38.497Z,32.44
2018-07-19T12:08:09.171Z,32.34
2018-07-19T12:10:39.883Z,32.86
2018-07-19T12:13:10.551Z,33.19
2018-07-19T12:15:41.269Z,33.73
2018-07-19T12:18:11.998Z,33.95
2018-07-19T12:20:42.596Z,33.98
2018-07-19T12:23:13.248Z,34.45
2018-07-19T12:25:43.918Z,34.69
2018-07-19T12:28:14.631Z,34.03
2018-07-19T12:30:45.324Z,33.08
2018-07-19T12:33:15.982Z,32.62
2018-07-19T12:35:46.679Z,31.87
2018-07-19T12:38:17.309Z,31.49
2018-07-19T12:40:48.010Z,31.08
2018-07-19T12:43:18.911Z,30.99
2018-07-19T12:45:49.576Z,30.71
2018-07-19T12:48:20.209Z,30.30
2018-07-19T12:50:50.912Z,30.25
2018-07-19T12:53:21.556Z,30.28
2018-07-19T12:55:52.333Z,30.33
2018-07-19T12:58:22.971Z,30.48
2018-07-19T13:00:53.698Z,30.66
2018-07-19T13:03:24.368Z,30.71
2018-07-19T13:05:55.028Z,30.79
2018-07-19T13:08:25.671Z,30.80
2018-07-19T13:10:56.433Z,30.78
2018-07-19T13:13:27.120Z,30.75
2018-07-19T13:15:57.903Z,30.74
2018-07-19T13:18:28.615Z,30.86
2018-07-19T13:20:59.331Z,30.91
2018-07-19T13:23:30.027Z,30.90
2018-07-19T13:26:00.748Z,30.82
2018-07-19T13:28:31.405Z,30.50
2018-07-19T13:31:02.163Z,30.30
2018-07-19T13:33:32.841Z,30.55
2018-07-19T13:36:03.553Z,30.77
2018-07-19T13:38:34.244Z,31.38
2018-07-19T13:41:04.952Z,31.30
2018-07-19T13:43:35.646Z,31.41
2018-07-19T13:46:06.804Z,31.41
2018-07-19T13:48:37.491Z,31.88
2018-07-19T13:51:08.249Z,32.50
2018-07-19T13:54:20.939Z,33.09
2018-07-19T13:56:51.590Z,33.25
2018-07-19T13:59:22.282Z,33.71
2018-07-19T14:01:52.999Z,34.12
2018-07-19T14:04:23.685Z,34.34
2018-07-19T14:06:54.373Z,33.90
2018-07-19T14:09:25.200Z,33.26
2018-07-19T14:11:55.870Z,32.88
2018-07-19T14:14:26.575Z,32.74
2018-07-19T14:16:57.298Z,32.34
2018-07-19T14:19:27.942Z,32.45
2018-07-19T14:21:58.683Z,32.46
2018-07-19T14:24:29.352Z,32.26
2018-07-19T14:27:00.021Z,32.05
2018-07-19T14:29:30.697Z,32.33
2018-07-19T14:32:01.057Z,32.42
2018-07-19T14:34:31.596Z,31.97
2018-07-19T14:37:02.380Z,32.13
2018-07-19T14:39:33.067Z,32.54
2018-07-19T14:42:03.890Z,32.70
2018-07-19T14:44:34.789Z,32.68
2018-07-19T14:47:05.550Z,32.60
2018-07-19T14:49:36.235Z,32.35
2018-07-19T14:52:07.133Z,32.46
2018-07-19T14:54:37.788Z,32.61
2018-07-19T14:57:08.489Z,32.71
2018-07-19T14:59:39.179Z,33.00
2018-07-19T15:02:09.852Z,33.09
2018-07-19T15:04:40.514Z,32.71
2018-07-19T15:07:11.139Z,32.47
2018-07-19T15:09:41.784Z,32.33
2018-07-19T15:12:43.524Z,32.33
2018-07-19T15:15:14.206Z,32.75
2018-07-19T15:17:44.899Z,32.95
2018-07-19T15:20:15.671Z,33.20
2018-07-19T15:22:46.342Z,33.36
2018-07-19T15:25:17.041Z,33.27
2018-07-19T15:27:47.799Z,33.26
2018-07-19T15:30:18.493Z,33.32
2018-07-19T15:32:49.207Z,33.27
2018-07-19T15:35:19.944Z,33.41
2018-07-19T15:37:50.736Z,33.52
2018-07-19T15:40:21.426Z,33.66
2018-07-19T15:42:52.109Z,33.40
2018-07-19T15:45:22.775Z,33.38
2018-07-19T15:47:53.611Z,33.26
2018-07-19T15:50:24.270Z,33.06
2018-07-19T15:52:54.983Z,32.86
2018-07-19T15:55:25.653Z,32.72
2018-07-19T15:57:56.349Z,32.56
2018-07-19T16:00:27.157Z,32.40
2018-07-19T16:02:57.948Z,32.27
2018-07-19T16:05:28.916Z,32.25
2018-07-19T16:07:59.584Z,32.13
2018-07-19T16:10:30.272Z,32.04
2018-07-19T16:13:00.945Z,32.06
2018-07-19T16:15:31.599Z,32.05
2018-07-19T16:18:02.255Z,31.99
2018-07-19T16:20:33.390Z,31.97
2018-07-19T16:23:04.061Z,31.89
2018-07-19T16:25:34.725Z,31.87
2018-07-19T16:28:05.465Z,31.82
2018-07-19T16:30:36.176Z,31.60
2018-07-19T16:33:07.112Z,31.30
2018-07-19T16:35:37.791Z,31.12
2018-07-19T16:38:08.501Z,30.92
2018-07-19T16:40:39.245Z,30.67
2018-07-19T16:43:09.883Z,30.57
2018-07-19T16:45:40.573Z,30.43
2018-07-19T16:48:11.268Z,30.20
2018-07-19T16:50:41.987Z,30.06
2018-07-19T16:53:12.681Z,30.03
2018-07-19T16:55:43.342Z,29.95
2018-07-19T16:58:14.078Z,29.85
2018-07-19T17:00:44.775Z,29.84
2018-07-19T17:03:15.696Z,29.70
2018-07-19T17:05:46.423Z,29.56
2018-07-19T17:08:17.138Z,29.40
2018-07-19T17:10:47.866Z,29.30
2018-07-19T17:13:18.621Z,29.15
2018-07-19T17:15:49.322Z,29.18
2018-07-19T17:18:19.979Z,29.18
2018-07-19T17:20:50.686Z,29.16
2018-07-19T17:23:21.352Z,29.06
2018-07-19T17:25:52.060Z,28.88
2018-07-19T17:28:22.738Z,28.82
2018-07-19T17:30:53.387Z,28.61
2018-07-19T17:33:24.057Z,28.51
2018-07-19T17:35:54.732Z,28.40
2018-07-19T17:38:25.415Z,28.28
2018-07-19T17:40:56.109Z,28.20
2018-07-19T17:43:26.841Z,27.99
2018-07-19T17:45:57.524Z,27.90
2018-07-19T17:48:28.195Z,27.85
2018-07-19T17:50:58.589Z,27.74
2018-07-19T17:53:29.111Z,27.70
2018-07-19T17:55:59.799Z,27.69
2018-07-19T17:58:30.494Z,27.61
2018-07-19T18:01:01.232Z,27.56
2018-07-19T18:03:31.902Z,27.44
2018-07-19T18:06:02.584Z,27.36
2018-07-19T18:08:33.242Z,27.34
2018-07-19T18:11:03.987Z,27.25
2018-07-19T18:13:34.609Z,27.26
2018-07-19T18:16:05.432Z,27.26
2018-07-19T18:18:36.056Z,27.28
2018-07-19T18:21:06.824Z,27.33
2018-07-19T18:23:37.487Z,27.35
2018-07-19T18:26:08.191Z,27.30
2018-07-19T18:28:38.903Z,27.26
2018-07-19T18:31:09.600Z,27.18
2018-07-19T18:33:40.262Z,27.13
2018-07-19T18:38:40.402Z,27.06
2018-07-19T18:41:11.076Z,27.01
2018-07-19T18:43:41.720Z,26.93
2018-07-19T18:46:12.407Z,26.85
2018-07-19T18:48:43.095Z,26.80
2018-07-19T18:51:13.753Z,26.76
2018-07-19T18:53:44.419Z,26.69
2018-07-19T18:56:15.074Z,26.63
2018-07-19T18:58:45.780Z,26.57
2018-07-19T19:01:16.384Z,26.49
2018-07-19T19:03:47.066Z,26.44
2018-07-19T19:06:19.283Z,26.39
2018-07-19T19:08:48.488Z,26.32
2018-07-19T19:11:19.124Z,26.25
2018-07-19T19:13:49.879Z,26.13
2018-07-19T19:16:20.543Z,26.01
2018-07-19T19:18:51.260Z,25.91
2018-07-19T19:21:21.978Z,25.83
2018-07-19T19:23:52.656Z,25.69
2018-07-19T19:26:23.321Z,25.60
2018-07-19T19:28:53.985Z,25.49
2018-07-19T19:31:24.711Z,25.40
2018-07-19T19:33:55.413Z,25.30
2018-07-19T19:36:26.115Z,25.25
2018-07-19T19:38:56.813Z,25.18
2018-07-19T19:41:27.543Z,25.12
2018-07-19T19:43:58.205Z,25.09
2018-07-19T19:46:28.912Z,24.96
2018-07-19T19:48:59.547Z,24.86
2018-07-19T19:51:30.354Z,24.76
2018-07-19T19:57:02.093Z,24.42
2018-07-19T19:59:32.870Z,24.29
2018-07-19T20:02:03.620Z,24.16
2018-07-19T20:04:34.262Z,24.15
2018-07-19T20:07:04.979Z,24.11
2018-07-19T20:09:35.720Z,24.03
2018-07-19T20:12:06.480Z,23.93
2018-07-19T20:14:37.220Z,23.81
2018-07-19T20:17:08.092Z,23.70
2018-07-19T20:19:38.756Z,23.60
2018-07-19T20:22:09.604Z,23.51
2018-07-19T20:24:40.691Z,23.41
2018-07-19T20:27:11.492Z,23.35
2018-07-19T20:29:42.258Z,23.26
2018-07-19T20:32:12.933Z,23.19
2018-07-19T20:34:43.635Z,23.10
2018-07-19T20:37:14.410Z,23.03
2018-07-19T20:39:45.092Z,22.92
2018-07-19T20:42:15.805Z,22.84
2018-07-19T20:44:46.492Z,22.77
2018-07-19T20:47:17.332Z,22.71
2018-07-19T20:49:48.103Z,22.66
2018-07-19T20:52:18.936Z,22.63
2018-07-19T20:54:49.653Z,22.58
2018-07-19T20:57:20.328Z,22.56
2018-07-19T20:59:51.057Z,22.51
2018-07-19T21:02:21.737Z,22.44
2018-07-19T21:04:52.483Z,22.36
2018-07-19T21:07:23.170Z,22.28
2018-07-19T21:09:53.851Z,22.21
2018-07-19T21:12:24.582Z,22.12
2018-07-19T21:14:55.263Z,22.08
2018-07-19T21:17:26.064Z,22.03
2018-07-19T21:19:57.374Z,21.98
2018-07-19T21:22:28.054Z,21.96
2018-07-19T21:24:58.720Z,21.94
2018-07-19T21:27:29.399Z,21.92
2018-07-19T21:30:00.239Z,21.91
2018-07-19T21:32:30.984Z,21.90
2018-07-19T21:35:01.704Z,21.91
2018-07-19T21:37:32.413Z,21.87
2018-07-19T21:40:03.104Z,21.85
2018-07-19T21:42:33.780Z,21.79
2018-07-19T21:45:04.824Z,21.69
2018-07-19T21:47:35.612Z,21.61
2018-07-19T21:50:09.711Z,21.57
2018-07-19T21:52:40.435Z,21.55
2018-07-19T21:55:11.126Z,21.53
2018-07-19T21:57:41.800Z,21.54
2018-07-19T22:00:12.548Z,21.51
2018-07-19T22:02:43.332Z,21.49
2018-07-19T22:05:13.968Z,21.46
2018-07-19T22:07:44.680Z,21.44
2018-07-19T22:10:15.384Z,21.37
2018-07-19T22:12:46.067Z,21.34
2018-07-19T22:15:16.737Z,21.31
2018-07-19T22:17:47.453Z,21.27
2018-07-19T22:20:18.906Z,21.24
2018-07-19T22:23:20.463Z,21.33
2018-07-19T22:25:51.101Z,21.38
2018-07-19T22:28:21.748Z,21.40
2018-07-19T22:30:52.448Z,21.39
2018-07-19T22:33:23.114Z,21.33
2018-07-19T22:35:53.798Z,21.29
2018-07-19T22:38:24.479Z,21.24
2018-07-19T22:40:55.193Z,21.22
2018-07-19T22:43:25.584Z,21.16
2018-07-19T22:45:56.168Z,21.14
2018-07-19T22:48:26.830Z,21.10
2018-07-19T22:50:57.529Z,21.11
2018-07-19T22:53:28.192Z,21.10
2018-07-19T22:55:58.880Z,21.06
2018-07-19T22:58:30.223Z,21.06
2018-07-19T23:01:00.907Z,21.02
2018-07-19T23:03:31.591Z,21.04
2018-07-19T23:06:02.300Z,21.00
2018-07-19T23:08:33.244Z,21.06
2018-07-19T23:11:04.020Z,20.97
2018-07-19T23:13:35.053Z,20.88
2018-07-19T23:16:05.795Z,20.79
2018-07-19T23:18:36.455Z,20.72
2018-07-19T23:21:07.219Z,20.65
2018-07-19T23:23:37.896Z,20.61
2018-07-19T23:26:08.544Z,20.56
2018-07-19T23:28:39.316Z,20.50
2018-07-19T23:31:11.042Z,20.42
2018-07-19T23:33:41.806Z,20.38
2018-07-19T23:36:15.860Z,20.31
2018-07-19T23:38:53.691Z,20.23
2018-07-19T23:42:29.981Z,20.17
2018-07-19T23:45:22.751Z,20.06
2018-07-19T23:47:54.059Z,20.01
2018-07-19T23:50:24.760Z,19.95
2018-07-19T23:52:55.837Z,19.92
2018-07-19T23:55:26.568Z,19.87
2018-07-19T23:57:57.270Z,19.83
